sensor_id;sensor_type;location;lat;lon;timestamp;P1;durP1;ratioP1;P2;durP2;ratioP2
12482;SDS011;6306;47.134;15.344;2023-04-01T00:00:05;2.63;;;2.43;;
12482;SDS011;6306;47.134;15.344;2023-04-01T00:02:34;5.27;;;2.50;;
12482;SDS011;6306;47.134;15.344;2023-04-01T00:05:00;5.90;;;3.60;;
12482;SDS011;6306;47.134;15.344;2023-04-01T00:07:27;2.83;;;2.33;;
12482;SDS011;6306;47.134;15.344;2023-04-01T00:09:53;2.40;;;2.20;;
12482;SDS011;6306;47.134;15.344;2023-04-01T00:12:19;2.77;;;2.27;;
12482;SDS011;6306;47.134;15.344;2023-04-01T00:14:45;4.77;;;3.27;;
12482;SDS011;6306;47.134;15.344;2023-04-01T00:17:11;3.50;;;2.53;;
12482;SDS011;6306;47.134;15.344;2023-04-01T00:19:37;8.30;;;2.77;;
12482;SDS011;6306;47.134;15.344;2023-04-01T00:22:03;3.27;;;2.97;;
12482;SDS011;6306;47.134;15.344;2023-04-01T00:24:29;3.70;;;3.40;;
12482;SDS011;6306;47.134;15.344;2023-04-01T00:26:55;4.50;;;3.23;;
12482;SDS011;6306;47.134;15.344;2023-04-01T00:29:21;3.03;;;2.73;;
12482;SDS011;6306;47.134;15.344;2023-04-01T00:31:49;3.33;;;2.70;;
12482;SDS011;6306;47.134;15.344;2023-04-01T00:34:15;3.13;;;2.73;;
12482;SDS011;6306;47.134;15.344;2023-04-01T00:36:41;2.83;;;2.63;;
12482;SDS011;6306;47.134;15.344;2023-04-01T00:39:07;4.17;;;3.03;;
12482;SDS011;6306;47.134;15.344;2023-04-01T00:41:33;3.03;;;2.73;;
12482;SDS011;6306;47.134;15.344;2023-04-01T00:46:59;3.17;;;2.87;;
12482;SDS011;6306;47.134;15.344;2023-04-01T00:49:44;9.90;;;3.97;;
12482;SDS011;6306;47.134;15.344;2023-04-01T00:52:11;3.33;;;2.73;;
12482;SDS011;6306;47.134;15.344;2023-04-01T00:54:38;3.30;;;3.00;;
12482;SDS011;6306;47.134;15.344;2023-04-01T00:57:08;3.33;;;3.03;;
12482;SDS011;6306;47.134;15.344;2023-04-01T00:59:43;2.80;;;2.60;;
12482;SDS011;6306;47.134;15.344;2023-04-01T01:02:10;3.50;;;2.27;;
12482;SDS011;6306;47.134;15.344;2023-04-01T01:04:37;3.00;;;2.80;;
12482;SDS011;6306;47.134;15.344;2023-04-01T01:14:45;4.53;;;2.57;;
12482;SDS011;6306;47.134;15.344;2023-04-01T01:27:32;2.10;;;1.90;;
12482;SDS011;6306;47.134;15.344;2023-04-01T01:30:09;4.83;;;2.70;;
12482;SDS011;6306;47.134;15.344;2023-04-01T01:32:44;2.93;;;2.40;;
12482;SDS011;6306;47.134;15.344;2023-04-01T01:35:16;3.37;;;2.50;;
12482;SDS011;6306;47.134;15.344;2023-04-01T01:37:45;2.70;;;2.50;;
12482;SDS011;6306;47.134;15.344;2023-04-01T01:40:12;4.37;;;2.80;;
12482;SDS011;6306;47.134;15.344;2023-04-01T01:42:39;2.90;;;2.67;;
12482;SDS011;6306;47.134;15.344;2023-04-01T01:45:06;3.57;;;2.90;;
12482;SDS011;6306;47.134;15.344;2023-04-01T01:47:33;4.53;;;2.83;;
12482;SDS011;6306;47.134;15.344;2023-04-01T01:50:00;2.90;;;2.70;;
12482;SDS011;6306;47.134;15.344;2023-04-01T01:52:27;2.40;;;2.20;;
12482;SDS011;6306;47.134;15.344;2023-04-01T01:54:56;4.73;;;2.33;;
12482;SDS011;6306;47.134;15.344;2023-04-01T01:57:29;2.70;;;2.33;;
12482;SDS011;6306;47.134;15.344;2023-04-01T01:59:57;3.93;;;2.03;;
12482;SDS011;6306;47.134;15.344;2023-04-01T02:02:25;3.63;;;2.40;;
12482;SDS011;6306;47.134;15.344;2023-04-01T02:04:52;2.80;;;2.03;;
12482;SDS011;6306;47.134;15.344;2023-04-01T02:07:20;2.07;;;1.97;;
12482;SDS011;6306;47.134;15.344;2023-04-01T02:09:47;2.43;;;1.70;;
12482;SDS011;6306;47.134;15.344;2023-04-01T02:12:14;1.87;;;1.77;;
12482;SDS011;6306;47.134;15.344;2023-04-01T02:17:17;3.23;;;2.40;;
12482;SDS011;6306;47.134;15.344;2023-04-01T02:19:52;2.43;;;2.23;;
12482;SDS011;6306;47.134;15.344;2023-04-01T02:22:20;2.67;;;2.43;;
12482;SDS011;6306;47.134;15.344;2023-04-01T02:24:47;4.50;;;2.97;;
12482;SDS011;6306;47.134;15.344;2023-04-01T02:27:14;2.30;;;1.90;;
12482;SDS011;6306;47.134;15.344;2023-04-01T02:29:40;2.80;;;2.47;;
12482;SDS011;6306;47.134;15.344;2023-04-01T02:32:07;2.70;;;2.40;;
12482;SDS011;6306;47.134;15.344;2023-04-01T02:34:33;2.63;;;2.43;;
12482;SDS011;6306;47.134;15.344;2023-04-01T02:37:00;2.17;;;1.97;;
12482;SDS011;6306;47.134;15.344;2023-04-01T02:39:26;2.30;;;2.10;;
12482;SDS011;6306;47.134;15.344;2023-04-01T02:41:52;2.70;;;2.47;;
12482;SDS011;6306;47.134;15.344;2023-04-01T02:44:19;2.67;;;1.90;;
12482;SDS011;6306;47.134;15.344;2023-04-01T02:46:45;2.13;;;1.93;;
12482;SDS011;6306;47.134;15.344;2023-04-01T02:49:11;2.97;;;2.67;;
12482;SDS011;6306;47.134;15.344;2023-04-01T02:51:37;7.10;;;2.13;;
12482;SDS011;6306;47.134;15.344;2023-04-01T02:54:03;4.57;;;2.40;;
12482;SDS011;6306;47.134;15.344;2023-04-01T02:56:29;3.83;;;2.40;;
12482;SDS011;6306;47.134;15.344;2023-04-01T02:58:55;4.20;;;2.60;;
12482;SDS011;6306;47.134;15.344;2023-04-01T03:01:21;3.13;;;2.57;;
12482;SDS011;6306;47.134;15.344;2023-04-01T03:03:47;1.80;;;1.70;;
12482;SDS011;6306;47.134;15.344;2023-04-01T03:06:14;2.13;;;2.03;;
12482;SDS011;6306;47.134;15.344;2023-04-01T03:08:41;1.83;;;1.70;;
12482;SDS011;6306;47.134;15.344;2023-04-01T03:11:07;4.07;;;2.40;;
12482;SDS011;6306;47.134;15.344;2023-04-01T03:13:33;2.63;;;2.43;;
12482;SDS011;6306;47.134;15.344;2023-04-01T03:15:59;5.20;;;2.17;;
12482;SDS011;6306;47.134;15.344;2023-04-01T03:18:25;2.57;;;2.37;;
12482;SDS011;6306;47.134;15.344;2023-04-01T03:20:51;2.03;;;1.70;;
12482;SDS011;6306;47.134;15.344;2023-04-01T03:23:17;2.30;;;2.10;;
12482;SDS011;6306;47.134;15.344;2023-04-01T03:25:46;2.80;;;2.10;;
12482;SDS011;6306;47.134;15.344;2023-04-01T03:28:12;2.90;;;2.67;;
12482;SDS011;6306;47.134;15.344;2023-04-01T03:30:38;3.30;;;2.20;;
12482;SDS011;6306;47.134;15.344;2023-04-01T03:33:05;4.70;;;2.80;;
12482;SDS011;6306;47.134;15.344;2023-04-01T03:35:31;6.33;;;2.50;;
12482;SDS011;6306;47.134;15.344;2023-04-01T03:37:58;4.00;;;2.87;;
12482;SDS011;6306;47.134;15.344;2023-04-01T03:40:24;3.00;;;2.40;;
12482;SDS011;6306;47.134;15.344;2023-04-01T03:42:51;1.60;;;1.50;;
12482;SDS011;6306;47.134;15.344;2023-04-01T03:45:17;2.27;;;2.07;;
12482;SDS011;6306;47.134;15.344;2023-04-01T03:47:43;2.70;;;2.50;;
12482;SDS011;6306;47.134;15.344;2023-04-01T03:50:10;3.40;;;1.90;;
12482;SDS011;6306;47.134;15.344;2023-04-01T03:52:36;2.03;;;1.73;;
12482;SDS011;6306;47.134;15.344;2023-04-01T03:55:02;3.13;;;2.33;;
12482;SDS011;6306;47.134;15.344;2023-04-01T03:57:30;2.67;;;2.00;;
12482;SDS011;6306;47.134;15.344;2023-04-01T03:59:56;7.47;;;5.37;;
12482;SDS011;6306;47.134;15.344;2023-04-01T04:02:22;3.50;;;2.77;;
12482;SDS011;6306;47.134;15.344;2023-04-01T04:04:48;2.53;;;2.33;;
12482;SDS011;6306;47.134;15.344;2023-04-01T04:07:14;3.07;;;2.77;;
12482;SDS011;6306;47.134;15.344;2023-04-01T04:09:40;2.30;;;2.10;;
12482;SDS011;6306;47.134;15.344;2023-04-01T04:12:06;4.07;;;2.03;;
12482;SDS011;6306;47.134;15.344;2023-04-01T04:14:32;3.10;;;2.50;;
12482;SDS011;6306;47.134;15.344;2023-04-01T04:16:58;3.40;;;3.10;;
12482;SDS011;6306;47.134;15.344;2023-04-01T04:19:24;3.17;;;2.60;;
12482;SDS011;6306;47.134;15.344;2023-04-01T04:21:50;5.13;;;2.67;;
12482;SDS011;6306;47.134;15.344;2023-04-01T04:24:16;1.63;;;1.53;;
12482;SDS011;6306;47.134;15.344;2023-04-01T04:26:42;3.90;;;3.20;;
12482;SDS011;6306;47.134;15.344;2023-04-01T04:29:08;4.70;;;3.20;;
12482;SDS011;6306;47.134;15.344;2023-04-01T04:31:35;4.70;;;2.73;;
12482;SDS011;6306;47.134;15.344;2023-04-01T04:34:01;3.60;;;3.30;;
12482;SDS011;6306;47.134;15.344;2023-04-01T04:36:27;2.33;;;2.13;;
12482;SDS011;6306;47.134;15.344;2023-04-01T04:38:53;3.03;;;2.20;;
12482;SDS011;6306;47.134;15.344;2023-04-01T04:41:19;3.37;;;2.80;;
12482;SDS011;6306;47.134;15.344;2023-04-01T04:43:54;3.77;;;2.43;;
12482;SDS011;6306;47.134;15.344;2023-04-01T04:46:20;3.57;;;2.70;;
12482;SDS011;6306;47.134;15.344;2023-04-01T04:48:47;3.37;;;2.37;;
12482;SDS011;6306;47.134;15.344;2023-04-01T04:51:16;2.10;;;1.80;;
12482;SDS011;6306;47.134;15.344;2023-04-01T04:53:42;3.60;;;2.40;;
12482;SDS011;6306;47.134;15.344;2023-04-01T04:56:08;3.33;;;2.60;;
12482;SDS011;6306;47.134;15.344;2023-04-01T04:58:35;5.90;;;2.30;;
12482;SDS011;6306;47.134;15.344;2023-04-01T05:01:20;2.37;;;2.17;;
12482;SDS011;6306;47.134;15.344;2023-04-01T05:03:46;8.03;;;2.73;;
12482;SDS011;6306;47.134;15.344;2023-04-01T05:06:12;3.17;;;2.17;;
12482;SDS011;6306;47.134;15.344;2023-04-01T05:08:39;2.63;;;2.40;;
12482;SDS011;6306;47.134;15.344;2023-04-01T05:11:07;2.73;;;2.53;;
12482;SDS011;6306;47.134;15.344;2023-04-01T05:13:35;2.70;;;2.50;;
12482;SDS011;6306;47.134;15.344;2023-04-01T05:16:01;3.27;;;2.97;;
12482;SDS011;6306;47.134;15.344;2023-04-01T05:18:27;2.57;;;2.33;;
12482;SDS011;6306;47.134;15.344;2023-04-01T05:20:54;3.23;;;2.53;;
12482;SDS011;6306;47.134;15.344;2023-04-01T05:23:20;3.83;;;2.50;;
12482;SDS011;6306;47.134;15.344;2023-04-01T05:25:50;3.20;;;2.73;;
12482;SDS011;6306;47.134;15.344;2023-04-01T05:28:18;3.93;;;3.30;;
12482;SDS011;6306;47.134;15.344;2023-04-01T05:30:44;3.17;;;2.87;;
12482;SDS011;6306;47.134;15.344;2023-04-01T05:33:10;3.10;;;2.80;;
12482;SDS011;6306;47.134;15.344;2023-04-01T05:35:36;3.47;;;3.17;;
12482;SDS011;6306;47.134;15.344;2023-04-01T05:38:03;3.33;;;3.03;;
12482;SDS011;6306;47.134;15.344;2023-04-01T05:40:29;3.13;;;2.90;;
12482;SDS011;6306;47.134;15.344;2023-04-01T05:42:55;5.33;;;3.20;;
12482;SDS011;6306;47.134;15.344;2023-04-01T05:45:21;3.37;;;2.47;;
12482;SDS011;6306;47.134;15.344;2023-04-01T05:47:47;2.70;;;2.17;;
12482;SDS011;6306;47.134;15.344;2023-04-01T05:50:13;3.50;;;2.93;;
12482;SDS011;6306;47.134;15.344;2023-04-01T05:52:40;3.33;;;2.50;;
12482;SDS011;6306;47.134;15.344;2023-04-01T05:55:06;2.30;;;2.10;;
12482;SDS011;6306;47.134;15.344;2023-04-01T05:57:32;9.40;;;3.23;;
12482;SDS011;6306;47.134;15.344;2023-04-01T05:59:58;2.83;;;2.63;;
12482;SDS011;6306;47.134;15.344;2023-04-01T06:02:25;2.67;;;2.47;;
12482;SDS011;6306;47.134;15.344;2023-04-01T06:04:54;3.20;;;2.13;;
12482;SDS011;6306;47.134;15.344;2023-04-01T06:07:26;4.10;;;2.60;;
12482;SDS011;6306;47.134;15.344;2023-04-01T06:09:53;3.70;;;3.40;;
12482;SDS011;6306;47.134;15.344;2023-04-01T06:12:33;5.03;;;4.17;;
12482;SDS011;6306;47.134;15.344;2023-04-01T06:17:46;4.87;;;4.37;;
12482;SDS011;6306;47.134;15.344;2023-04-01T06:30:21;3.53;;;3.20;;
12482;SDS011;6306;47.134;15.344;2023-04-01T06:32:54;3.57;;;3.27;;
12482;SDS011;6306;47.134;15.344;2023-04-01T06:38:00;3.60;;;3.03;;
12482;SDS011;6306;47.134;15.344;2023-04-01T06:43:13;3.83;;;3.40;;
12482;SDS011;6306;47.134;15.344;2023-04-01T06:55:42;3.80;;;3.23;;
12482;SDS011;6306;47.134;15.344;2023-04-01T06:58:13;2.90;;;2.63;;
12482;SDS011;6306;47.134;15.344;2023-04-01T07:00:43;5.73;;;2.77;;
12482;SDS011;6306;47.134;15.344;2023-04-01T07:03:21;4.47;;;2.97;;
12482;SDS011;6306;47.134;15.344;2023-04-01T07:05:48;4.17;;;2.90;;
12482;SDS011;6306;47.134;15.344;2023-04-01T07:08:20;4.30;;;2.90;;
12482;SDS011;6306;47.134;15.344;2023-04-01T07:10:51;2.53;;;2.30;;
12482;SDS011;6306;47.134;15.344;2023-04-01T07:16:51;2.43;;;2.23;;
12482;SDS011;6306;47.134;15.344;2023-04-01T07:18:58;6.20;;;4.00;;
12482;SDS011;6306;47.134;15.344;2023-04-01T07:21:26;4.53;;;3.10;;
12482;SDS011;6306;47.134;15.344;2023-04-01T07:23:56;6.47;;;3.63;;
12482;SDS011;6306;47.134;15.344;2023-04-01T07:26:23;4.37;;;2.90;;
12482;SDS011;6306;47.134;15.344;2023-04-01T07:28:53;3.50;;;3.20;;
12482;SDS011;6306;47.134;15.344;2023-04-01T07:31:30;3.43;;;2.73;;
12482;SDS011;6306;47.134;15.344;2023-04-01T07:34:18;2.93;;;2.67;;
12482;SDS011;6306;47.134;15.344;2023-04-01T07:36:47;3.10;;;2.40;;
12482;SDS011;6306;47.134;15.344;2023-04-01T07:39:36;3.27;;;2.80;;
12482;SDS011;6306;47.134;15.344;2023-04-01T07:44:41;2.87;;;2.60;;
12482;SDS011;6306;47.134;15.344;2023-04-01T07:57:20;18.10;;;2.57;;
12482;SDS011;6306;47.134;15.344;2023-04-01T07:59:52;7.90;;;2.27;;
12482;SDS011;6306;47.134;15.344;2023-04-01T08:02:32;2.13;;;1.90;;
12482;SDS011;6306;47.134;15.344;2023-04-01T08:05:04;1.13;;;1.03;;
12482;SDS011;6306;47.134;15.344;2023-04-01T08:08:06;0.83;;;0.83;;
12482;SDS011;6306;47.134;15.344;2023-04-01T08:10:30;2.37;;;1.17;;
12482;SDS011;6306;47.134;15.344;2023-04-01T08:13:42;0.70;;;0.67;;
12482;SDS011;6306;47.134;15.344;2023-04-01T08:15:49;2.10;;;0.97;;
12482;SDS011;6306;47.134;15.344;2023-04-01T08:21:10;2.10;;;1.33;;
12482;SDS011;6306;47.134;15.344;2023-04-01T08:23:38;1.73;;;1.00;;
12482;SDS011;6306;47.134;15.344;2023-04-01T08:26:15;1.10;;;0.50;;
12482;SDS011;6306;47.134;15.344;2023-04-01T08:28:48;1.23;;;1.10;;
12482;SDS011;6306;47.134;15.344;2023-04-01T08:31:35;2.40;;;0.90;;
12482;SDS011;6306;47.134;15.344;2023-04-01T08:34:03;0.90;;;0.90;;
12482;SDS011;6306;47.134;15.344;2023-04-01T08:36:37;1.23;;;1.10;;
12482;SDS011;6306;47.134;15.344;2023-04-01T08:39:09;4.53;;;1.30;;
12482;SDS011;6306;47.134;15.344;2023-04-01T08:49:27;2.57;;;1.47;;
12482;SDS011;6306;47.134;15.344;2023-04-01T08:52:10;3.00;;;1.03;;
12482;SDS011;6306;47.134;15.344;2023-04-01T09:13:05;1.70;;;0.40;;
12482;SDS011;6306;47.134;15.344;2023-04-01T09:15:42;2.17;;;0.70;;
12482;SDS011;6306;47.134;15.344;2023-04-01T09:18:23;2.53;;;0.80;;
12482;SDS011;6306;47.134;15.344;2023-04-01T09:36:37;0.50;;;0.47;;
12482;SDS011;6306;47.134;15.344;2023-04-01T09:41:55;4.13;;;0.50;;
12482;SDS011;6306;47.134;15.344;2023-04-01T09:44:26;0.70;;;0.63;;
12482;SDS011;6306;47.134;15.344;2023-04-01T09:49:37;0.40;;;0.30;;
12482;SDS011;6306;47.134;15.344;2023-04-01T10:15:42;0.50;;;0.40;;
12482;SDS011;6306;47.134;15.344;2023-04-01T10:20:56;0.60;;;0.50;;
12482;SDS011;6306;47.134;15.344;2023-04-01T10:39:48;0.30;;;0.30;;
12482;SDS011;6306;47.134;15.344;2023-04-01T11:11:37;0.80;;;0.40;;
12482;SDS011;6306;47.134;15.344;2023-04-01T11:24:55;0.87;;;0.30;;
12482;SDS011;6306;47.134;15.344;2023-04-01T11:32:34;0.40;;;0.30;;
12482;SDS011;6306;47.134;15.344;2023-04-01T11:42:54;0.40;;;0.30;;
12482;SDS011;6306;47.134;15.344;2023-04-01T12:04:09;0.70;;;0.30;;
12482;SDS011;6306;47.134;15.344;2023-04-01T12:11:57;0.40;;;0.40;;
12482;SDS011;6306;47.134;15.344;2023-04-01T12:17:02;0.40;;;0.30;;
12482;SDS011;6306;47.134;15.344;2023-04-01T12:22:12;0.40;;;0.30;;
12482;SDS011;6306;47.134;15.344;2023-04-01T12:24:48;0.40;;;0.30;;
12482;SDS011;6306;47.134;15.344;2023-04-01T12:39:56;0.40;;;0.30;;
12482;SDS011;6306;47.134;15.344;2023-04-01T12:55:35;0.40;;;0.30;;
12482;SDS011;6306;47.134;15.344;2023-04-01T13:00:48;0.30;;;0.30;;
12482;SDS011;6306;47.134;15.344;2023-04-01T13:11:02;1.23;;;0.50;;
12482;SDS011;6306;47.134;15.344;2023-04-01T13:13:45;0.40;;;0.30;;
12482;SDS011;6306;47.134;15.344;2023-04-01T13:16:24;1.00;;;0.30;;
12482;SDS011;6306;47.134;15.344;2023-04-01T13:29:21;0.50;;;0.40;;
12482;SDS011;6306;47.134;15.344;2023-04-01T13:39:42;0.50;;;0.43;;
12482;SDS011;6306;47.134;15.344;2023-04-01T13:44:41;1.37;;;1.27;;
12482;SDS011;6306;47.134;15.344;2023-04-01T13:47:29;0.70;;;0.50;;
12482;SDS011;6306;47.134;15.344;2023-04-01T14:13:23;0.50;;;0.47;;
12482;SDS011;6306;47.134;15.344;2023-04-01T14:23:30;0.40;;;0.40;;
12482;SDS011;6306;47.134;15.344;2023-04-01T14:33:54;0.40;;;0.30;;
12482;SDS011;6306;47.134;15.344;2023-04-01T14:36:32;0.40;;;0.30;;
12482;SDS011;6306;47.134;15.344;2023-04-01T14:39:22;0.33;;;0.30;;
12482;SDS011;6306;47.134;15.344;2023-04-01T14:49:35;3.33;;;0.40;;
12482;SDS011;6306;47.134;15.344;2023-04-01T14:52:10;0.53;;;0.37;;
12482;SDS011;6306;47.134;15.344;2023-04-01T14:54:37;0.30;;;0.30;;
12482;SDS011;6306;47.134;15.344;2023-04-01T14:59:48;0.40;;;0.30;;
12482;SDS011;6306;47.134;15.344;2023-04-01T15:02:18;0.40;;;0.30;;
12482;SDS011;6306;47.134;15.344;2023-04-01T15:05:23;0.40;;;0.37;;
12482;SDS011;6306;47.134;15.344;2023-04-01T15:15:22;0.40;;;0.30;;
12482;SDS011;6306;47.134;15.344;2023-04-01T15:18:09;0.50;;;0.37;;
12482;SDS011;6306;47.134;15.344;2023-04-01T15:31:28;0.50;;;0.40;;
12482;SDS011;6306;47.134;15.344;2023-04-01T15:38:57;0.40;;;0.40;;
12482;SDS011;6306;47.134;15.344;2023-04-01T15:44:02;0.30;;;0.30;;
12482;SDS011;6306;47.134;15.344;2023-04-01T15:46:47;1.00;;;0.90;;
12482;SDS011;6306;47.134;15.344;2023-04-01T16:08:24;0.67;;;0.57;;
12482;SDS011;6306;47.134;15.344;2023-04-01T16:18:04;2.57;;;0.47;;
12482;SDS011;6306;47.134;15.344;2023-04-01T16:23:00;0.80;;;0.50;;
12482;SDS011;6306;47.134;15.344;2023-04-01T16:30:37;0.40;;;0.40;;
12482;SDS011;6306;47.134;15.344;2023-04-01T16:33:25;0.47;;;0.47;;
12482;SDS011;6306;47.134;15.344;2023-04-01T16:38:43;0.80;;;0.60;;
12482;SDS011;6306;47.134;15.344;2023-04-01T16:41:34;0.40;;;0.30;;
12482;SDS011;6306;47.134;15.344;2023-04-01T16:44:43;0.40;;;0.30;;
12482;SDS011;6306;47.134;15.344;2023-04-01T16:46:58;0.73;;;0.50;;
12482;SDS011;6306;47.134;15.344;2023-04-01T16:52:00;0.53;;;0.50;;
12482;SDS011;6306;47.134;15.344;2023-04-01T16:54:51;1.63;;;0.47;;
12482;SDS011;6306;47.134;15.344;2023-04-01T16:57:56;0.90;;;0.80;;
12482;SDS011;6306;47.134;15.344;2023-04-01T17:00:26;0.60;;;0.50;;
12482;SDS011;6306;47.134;15.344;2023-04-01T17:05:18;2.57;;;1.00;;
12482;SDS011;6306;47.134;15.344;2023-04-01T17:07:48;2.00;;;1.00;;
12482;SDS011;6306;47.134;15.344;2023-04-01T17:12:50;3.70;;;1.90;;
12482;SDS011;6306;47.134;15.344;2023-04-01T17:15:21;2.00;;;1.33;;
12482;SDS011;6306;47.134;15.344;2023-04-01T17:22:55;1.63;;;1.43;;
12482;SDS011;6306;47.134;15.344;2023-04-01T17:39:03;0.73;;;0.70;;
12482;SDS011;6306;47.134;15.344;2023-04-01T17:49:37;0.50;;;0.50;;
12482;SDS011;6306;47.134;15.344;2023-04-01T18:05:05;0.40;;;0.30;;
12482;SDS011;6306;47.134;15.344;2023-04-01T18:10:38;0.60;;;0.40;;
12482;SDS011;6306;47.134;15.344;2023-04-01T18:13:29;0.63;;;0.50;;
12482;SDS011;6306;47.134;15.344;2023-04-01T18:16:14;2.17;;;0.60;;
12482;SDS011;6306;47.134;15.344;2023-04-01T18:23:52;0.70;;;0.60;;
12482;SDS011;6306;47.134;15.344;2023-04-01T18:26:22;1.10;;;1.00;;
12482;SDS011;6306;47.134;15.344;2023-04-01T18:29:51;0.60;;;0.50;;
12482;SDS011;6306;47.134;15.344;2023-04-01T18:31:47;0.40;;;0.30;;
12482;SDS011;6306;47.134;15.344;2023-04-01T18:34:20;0.50;;;0.40;;
12482;SDS011;6306;47.134;15.344;2023-04-01T18:37:00;0.43;;;0.40;;
12482;SDS011;6306;47.134;15.344;2023-04-01T18:39:33;0.40;;;0.40;;
12482;SDS011;6306;47.134;15.344;2023-04-01T18:47:55;2.07;;;0.70;;
12482;SDS011;6306;47.134;15.344;2023-04-01T18:50:07;1.33;;;0.77;;
12482;SDS011;6306;47.134;15.344;2023-04-01T18:52:38;0.60;;;0.40;;
12482;SDS011;6306;47.134;15.344;2023-04-01T18:57:46;1.30;;;0.30;;
12482;SDS011;6306;47.134;15.344;2023-04-01T19:02:41;0.70;;;0.40;;
12482;SDS011;6306;47.134;15.344;2023-04-01T19:05:14;0.37;;;0.30;;
12482;SDS011;6306;47.134;15.344;2023-04-01T19:07:46;0.63;;;0.40;;
12482;SDS011;6306;47.134;15.344;2023-04-01T19:15:14;0.77;;;0.50;;
12482;SDS011;6306;47.134;15.344;2023-04-01T19:25:48;0.60;;;0.37;;
12482;SDS011;6306;47.134;15.344;2023-04-01T19:30:53;1.07;;;0.50;;
12482;SDS011;6306;47.134;15.344;2023-04-01T19:35:52;0.40;;;0.40;;
12482;SDS011;6306;47.134;15.344;2023-04-01T19:40:52;0.63;;;0.63;;
12482;SDS011;6306;47.134;15.344;2023-04-01T19:51:44;0.97;;;0.67;;
12482;SDS011;6306;47.134;15.344;2023-04-01T19:56:40;1.43;;;0.80;;
12482;SDS011;6306;47.134;15.344;2023-04-01T19:59:19;1.30;;;0.60;;
12482;SDS011;6306;47.134;15.344;2023-04-01T20:02:33;1.07;;;0.80;;
12482;SDS011;6306;47.134;15.344;2023-04-01T20:04:42;3.77;;;1.33;;
12482;SDS011;6306;47.134;15.344;2023-04-01T20:07:12;1.60;;;1.13;;
12482;SDS011;6306;47.134;15.344;2023-04-01T20:09:51;1.20;;;0.70;;
12482;SDS011;6306;47.134;15.344;2023-04-01T20:14:54;1.50;;;1.07;;
12482;SDS011;6306;47.134;15.344;2023-04-01T20:17:26;1.47;;;1.37;;
12482;SDS011;6306;47.134;15.344;2023-04-01T20:24:57;1.53;;;0.90;;
12482;SDS011;6306;47.134;15.344;2023-04-01T20:27:30;4.83;;;0.90;;
12482;SDS011;6306;47.134;15.344;2023-04-01T20:40:18;2.80;;;1.30;;
12482;SDS011;6306;47.134;15.344;2023-04-01T20:42:58;3.03;;;1.27;;
12482;SDS011;6306;47.134;15.344;2023-04-01T20:45:35;1.60;;;1.30;;
12482;SDS011;6306;47.134;15.344;2023-04-01T20:50:48;4.30;;;1.20;;
12482;SDS011;6306;47.134;15.344;2023-04-01T20:53:16;1.70;;;0.90;;
12482;SDS011;6306;47.134;15.344;2023-04-01T20:58:41;1.97;;;0.83;;
12482;SDS011;6306;47.134;15.344;2023-04-01T21:03:31;8.60;;;3.37;;
12482;SDS011;6306;47.134;15.344;2023-04-01T21:11:04;6.37;;;3.37;;
12482;SDS011;6306;47.134;15.344;2023-04-01T21:13:41;3.70;;;2.13;;
12482;SDS011;6306;47.134;15.344;2023-04-01T21:16:34;3.57;;;2.60;;
12482;SDS011;6306;47.134;15.344;2023-04-01T21:39:56;1.37;;;0.90;;
12482;SDS011;6306;47.134;15.344;2023-04-01T21:42:31;1.47;;;1.30;;
12482;SDS011;6306;47.134;15.344;2023-04-01T21:50:14;2.30;;;1.23;;
12482;SDS011;6306;47.134;15.344;2023-04-01T21:58:16;2.80;;;1.63;;
12482;SDS011;6306;47.134;15.344;2023-04-01T22:10:59;1.53;;;1.07;;
12482;SDS011;6306;47.134;15.344;2023-04-01T22:13:36;2.13;;;1.10;;
12482;SDS011;6306;47.134;15.344;2023-04-01T22:16:23;1.10;;;1.00;;
12482;SDS011;6306;47.134;15.344;2023-04-01T22:18:56;0.77;;;0.70;;
12482;SDS011;6306;47.134;15.344;2023-04-01T22:29:58;2.03;;;1.93;;
12482;SDS011;6306;47.134;15.344;2023-04-01T22:32:29;1.30;;;1.20;;
12482;SDS011;6306;47.134;15.344;2023-04-01T22:35:42;2.10;;;1.53;;
12482;SDS011;6306;47.134;15.344;2023-04-01T22:37:55;0.90;;;0.70;;
12482;SDS011;6306;47.134;15.344;2023-04-01T22:43:01;1.33;;;1.20;;
12482;SDS011;6306;47.134;15.344;2023-04-01T22:45:51;0.80;;;0.63;;
12482;SDS011;6306;47.134;15.344;2023-04-01T22:50:53;2.10;;;1.80;;
12482;SDS011;6306;47.134;15.344;2023-04-01T22:55:47;3.40;;;1.60;;
12482;SDS011;6306;47.134;15.344;2023-04-01T22:58:16;3.40;;;1.87;;
12482;SDS011;6306;47.134;15.344;2023-04-01T23:00:43;2.07;;;1.40;;
12482;SDS011;6306;47.134;15.344;2023-04-01T23:05:56;2.47;;;1.90;;
12482;SDS011;6306;47.134;15.344;2023-04-01T23:09:08;1.30;;;1.00;;
12482;SDS011;6306;47.134;15.344;2023-04-01T23:16:43;2.20;;;1.10;;
12482;SDS011;6306;47.134;15.344;2023-04-01T23:19:17;3.10;;;1.33;;
12482;SDS011;6306;47.134;15.344;2023-04-01T23:21:49;1.87;;;1.17;;
12482;SDS011;6306;47.134;15.344;2023-04-01T23:27:03;1.07;;;0.80;;
12482;SDS011;6306;47.134;15.344;2023-04-01T23:29:31;1.27;;;0.90;;
12482;SDS011;6306;47.134;15.344;2023-04-01T23:32:01;1.33;;;1.13;;
12482;SDS011;6306;47.134;15.344;2023-04-01T23:34:29;1.50;;;1.00;;
12482;SDS011;6306;47.134;15.344;2023-04-01T23:36:57;0.70;;;0.70;;
12482;SDS011;6306;47.134;15.344;2023-04-01T23:39:26;1.40;;;1.00;;
12482;SDS011;6306;47.134;15.344;2023-04-01T23:41:54;1.47;;;1.07;;
12482;SDS011;6306;47.134;15.344;2023-04-01T23:44:20;1.27;;;1.20;;
12482;SDS011;6306;47.134;15.344;2023-04-01T23:46:47;1.43;;;1.33;;
12482;SDS011;6306;47.134;15.344;2023-04-01T23:49:21;1.03;;;0.90;;
12482;SDS011;6306;47.134;15.344;2023-04-01T23:51:50;3.23;;;1.20;;
12482;SDS011;6306;47.134;15.344;2023-04-01T23:54:40;1.50;;;1.00;;
12482;SDS011;6306;47.134;15.344;2023-04-01T23:57:09;1.00;;;1.00;;
12482;SDS011;6306;47.134;15.344;2023-04-01T23:59:36;1.43;;;1.10;;
